sensor_id;sensor_type;location;lat;lon;timestamp;pressure;altitude;pressure_sealevel;temperature;humidity
78123;BME280;67376;44.802;10.332;2023-02-18T00:00:10;102314.13;;;18.51;43.66
78123;BME280;67376;44.802;10.332;2023-02-18T00:02:36;102329.53;;;18.51;43.88
78123;BME280;67376;44.802;10.332;2023-02-18T00:05:01;102334.75;;;18.52;43.92
78123;BME280;67376;44.802;10.332;2023-02-18T00:07:27;102322.53;;;18.56;43.80
78123;BME280;67376;44.802;10.332;2023-02-18T00:09:52;102320.88;;;18.55;43.41
78123;BME280;67376;44.802;10.332;2023-02-18T00:12:18;102320.22;;;18.53;43.58
78123;BME280;67376;44.802;10.332;2023-02-18T00:14:43;102325.06;;;18.58;44.18
78123;BME280;67376;44.802;10.332;2023-02-18T00:17:08;102324.88;;;18.59;43.68
78123;BME280;67376;44.802;10.332;2023-02-18T00:19:34;102320.69;;;18.57;44.15
78123;BME280;67376;44.802;10.332;2023-02-18T00:21:59;102325.63;;;18.53;43.72
78123;BME280;67376;44.802;10.332;2023-02-18T00:24:24;102329.16;;;18.54;44.07
78123;BME280;67376;44.802;10.332;2023-02-18T00:26:51;102330.84;;;18.55;43.62
78123;BME280;67376;44.802;10.332;2023-02-18T00:29:17;102324.72;;;18.61;44.65
78123;BME280;67376;44.802;10.332;2023-02-18T00:31:43;102320.31;;;18.60;44.00
78123;BME280;67376;44.802;10.332;2023-02-18T00:34:10;102320.69;;;18.57;43.80
78123;BME280;67376;44.802;10.332;2023-02-18T00:36:36;102320.50;;;18.58;43.67
78123;BME280;67376;44.802;10.332;2023-02-18T00:39:06;102314.91;;;18.60;43.25
78123;BME280;67376;44.802;10.332;2023-02-18T00:41:33;102318.81;;;18.57;43.70
78123;BME280;67376;44.802;10.332;2023-02-18T00:43:58;102313.78;;;18.54;44.35
78123;BME280;67376;44.802;10.332;2023-02-18T00:46:24;102319.19;;;18.54;43.72
78123;BME280;67376;44.802;10.332;2023-02-18T00:48:50;102317.13;;;18.56;43.98
78123;BME280;67376;44.802;10.332;2023-02-18T00:51:16;102318.63;;;18.59;44.02
78123;BME280;67376;44.802;10.332;2023-02-18T00:53:41;102319.66;;;18.58;43.96
78123;BME280;67376;44.802;10.332;2023-02-18T00:56:07;102307.91;;;18.51;44.14
78123;BME280;67376;44.802;10.332;2023-02-18T00:58:33;102312.09;;;18.53;43.98
78123;BME280;67376;44.802;10.332;2023-02-18T01:00:59;102306.50;;;18.55;44.40
78123;BME280;67376;44.802;10.332;2023-02-18T01:03:25;102306.97;;;18.58;43.79
78123;BME280;67376;44.802;10.332;2023-02-18T01:05:51;102315.94;;;18.59;44.32
78123;BME280;67376;44.802;10.332;2023-02-18T01:08:18;102316.09;;;18.57;44.36
78123;BME280;67376;44.802;10.332;2023-02-18T01:10:45;102310.41;;;18.52;44.13
78123;BME280;67376;44.802;10.332;2023-02-18T01:13:12;102315.25;;;18.57;43.84
78123;BME280;67376;44.802;10.332;2023-02-18T01:15:39;102313.59;;;18.56;44.33
78123;BME280;67376;44.802;10.332;2023-02-18T01:18:05;102315.25;;;18.57;43.90
78123;BME280;67376;44.802;10.332;2023-02-18T01:20:32;102299.59;;;18.52;43.86
78123;BME280;67376;44.802;10.332;2023-02-18T01:22:57;102303.78;;;18.55;44.04
78123;BME280;67376;44.802;10.332;2023-02-18T01:25:23;102302.13;;;18.54;44.39
78123;BME280;67376;44.802;10.332;2023-02-18T01:27:48;102297.72;;;18.53;44.00
78123;BME280;67376;44.802;10.332;2023-02-18T01:30:16;102302.94;;;18.54;43.93
78123;BME280;67376;44.802;10.332;2023-02-18T01:32:42;102304.44;;;18.57;43.63
78123;BME280;67376;44.802;10.332;2023-02-18T01:35:10;102308.19;;;18.56;44.09
78123;BME280;67376;44.802;10.332;2023-02-18T01:37:36;102294.19;;;18.52;44.08
78123;BME280;67376;44.802;10.332;2023-02-18T01:40:02;102297.91;;;18.51;44.27
78123;BME280;67376;44.802;10.332;2023-02-18T01:42:28;102299.41;;;18.54;44.47
78123;BME280;67376;44.802;10.332;2023-02-18T01:44:55;102292.69;;;18.49;44.11
78123;BME280;67376;44.802;10.332;2023-02-18T01:47:39;102288.53;;;18.47;44.20
78123;BME280;67376;44.802;10.332;2023-02-18T01:50:05;102284.56;;;18.49;44.04
78123;BME280;67376;44.802;10.332;2023-02-18T01:52:30;102280.94;;;18.57;44.20
78123;BME280;67376;44.802;10.332;2023-02-18T01:54:57;102274.41;;;18.52;44.19
78123;BME280;67376;44.802;10.332;2023-02-18T01:57:28;102284.56;;;18.49;44.04
78123;BME280;67376;44.802;10.332;2023-02-18T01:59:56;102271.06;;;18.49;44.47
78123;BME280;67376;44.802;10.332;2023-02-18T02:02:25;102265.94;;;18.55;43.77
78123;BME280;67376;44.802;10.332;2023-02-18T02:04:51;102265.66;;;18.49;44.11
78123;BME280;67376;44.802;10.332;2023-02-18T02:07:18;102260.44;;;18.48;43.53
78123;BME280;67376;44.802;10.332;2023-02-18T02:09:46;102252.13;;;18.49;44.28
78123;BME280;67376;44.802;10.332;2023-02-18T02:15:05;102256.31;;;18.52;43.87
78123;BME280;67376;44.802;10.332;2023-02-18T02:23:41;102256.13;;;18.54;44.07
78123;BME280;67376;44.802;10.332;2023-02-18T02:32:26;102253.25;;;18.55;43.95
78123;BME280;67376;44.802;10.332;2023-02-18T02:40:37;102250.06;;;18.52;44.30
78123;BME280;67376;44.802;10.332;2023-02-18T02:43:14;102245.31;;;18.54;44.10
78123;BME280;67376;44.802;10.332;2023-02-18T02:45:53;102252.97;;;18.50;43.81
78123;BME280;67376;44.802;10.332;2023-02-18T02:51:17;102247.56;;;18.50;44.37
78123;BME280;67376;44.802;10.332;2023-02-18T02:53:45;102245.25;;;18.47;43.99
78123;BME280;67376;44.802;10.332;2023-02-18T02:56:22;102246.94;;;18.48;43.61
78123;BME280;67376;44.802;10.332;2023-02-18T02:58:57;102253.81;;;18.51;43.72
78123;BME280;67376;44.802;10.332;2023-02-18T03:09:45;102243.56;;;18.46;43.55
78123;BME280;67376;44.802;10.332;2023-02-18T03:12:28;102235.47;;;18.46;44.13
78123;BME280;67376;44.802;10.332;2023-02-18T03:20:50;102240.88;;;18.46;43.92
78123;BME280;67376;44.802;10.332;2023-02-18T03:23:19;102240.41;;;18.42;44.58
78123;BME280;67376;44.802;10.332;2023-02-18T03:25:47;102240.41;;;18.42;44.10
78123;BME280;67376;44.802;10.332;2023-02-18T03:28:19;102242.06;;;18.43;44.21
78123;BME280;67376;44.802;10.332;2023-02-18T03:33:17;102240.78;;;18.39;44.28
78123;BME280;67376;44.802;10.332;2023-02-18T03:35:46;102249.53;;;18.41;44.32
78123;BME280;67376;44.802;10.332;2023-02-18T03:38:39;102248.16;;;18.45;43.63
78123;BME280;67376;44.802;10.332;2023-02-18T03:41:08;102250.19;;;18.43;43.70
78123;BME280;67376;44.802;10.332;2023-02-18T03:43:34;102251.69;;;18.46;44.31
78123;BME280;67376;44.802;10.332;2023-02-18T03:45:59;102246.47;;;18.44;43.92
78123;BME280;67376;44.802;10.332;2023-02-18T03:48:25;102252.53;;;18.46;44.23
78123;BME280;67376;44.802;10.332;2023-02-18T03:50:50;102252.72;;;18.45;44.58
78123;BME280;67376;44.802;10.332;2023-02-18T03:53:16;102255.22;;;18.46;44.15
78123;BME280;67376;44.802;10.332;2023-02-18T03:55:41;102250.56;;;18.40;44.33
78123;BME280;67376;44.802;10.332;2023-02-18T03:58:07;102248.88;;;18.39;43.86
78123;BME280;67376;44.802;10.332;2023-02-18T04:00:32;102244.59;;;18.45;44.07
78123;BME280;67376;44.802;10.332;2023-02-18T04:02:58;102244.41;;;18.46;43.66
78123;BME280;67376;44.802;10.332;2023-02-18T04:05:23;102248.50;;;18.42;43.86
78123;BME280;67376;44.802;10.332;2023-02-18T04:07:48;102247.31;;;18.45;43.73
78123;BME280;67376;44.802;10.332;2023-02-18T04:10:14;102233.78;;;18.45;43.90
78123;BME280;67376;44.802;10.332;2023-02-18T04:12:39;102244.88;;;18.35;43.63
78123;BME280;67376;44.802;10.332;2023-02-18T04:15:05;102247.19;;;18.38;44.24
78123;BME280;67376;44.802;10.332;2023-02-18T04:17:32;102245.34;;;18.39;44.05
78123;BME280;67376;44.802;10.332;2023-02-18T04:19:58;102247.03;;;18.40;43.99
78123;BME280;67376;44.802;10.332;2023-02-18T04:22:23;102237.59;;;18.36;44.28
78123;BME280;67376;44.802;10.332;2023-02-18T04:24:49;102242.63;;;18.39;44.37
78123;BME280;67376;44.802;10.332;2023-02-18T04:27:14;102243.84;;;18.36;43.78
78123;BME280;67376;44.802;10.332;2023-02-18T04:29:39;102245.25;;;18.32;43.87
78123;BME280;67376;44.802;10.332;2023-02-18T04:32:05;102241.16;;;18.36;44.29
78123;BME280;67376;44.802;10.332;2023-02-18T04:34:30;102252.81;;;18.37;44.19
78123;BME280;67376;44.802;10.332;2023-02-18T04:36:55;102249.44;;;18.35;43.59
78123;BME280;67376;44.802;10.332;2023-02-18T04:39:21;102255.13;;;18.40;43.70
78123;BME280;67376;44.802;10.332;2023-02-18T04:41:47;102249.91;;;18.38;44.10
78123;BME280;67376;44.802;10.332;2023-02-18T04:44:12;102253.44;;;18.39;44.18
78123;BME280;67376;44.802;10.332;2023-02-18T04:46:37;102248.69;;;18.41;44.15
78123;BME280;67376;44.802;10.332;2023-02-18T04:49:03;102251.50;;;18.33;44.12
78123;BME280;67376;44.802;10.332;2023-02-18T04:51:28;102247.75;;;18.34;43.98
78123;BME280;67376;44.802;10.332;2023-02-18T04:53:54;102255.50;;;18.37;44.50
78123;BME280;67376;44.802;10.332;2023-02-18T04:56:19;102256.53;;;18.36;44.22
78123;BME280;67376;44.802;10.332;2023-02-18T04:58:45;102258.22;;;18.37;44.00
78123;BME280;67376;44.802;10.332;2023-02-18T05:01:11;102253.72;;;18.29;44.23
78123;BME280;67376;44.802;10.332;2023-02-18T05:03:36;102258.56;;;18.34;44.05
78123;BME280;67376;44.802;10.332;2023-02-18T05:06:02;102249.34;;;18.28;43.85
78123;BME280;67376;44.802;10.332;2023-02-18T05:08:27;102255.41;;;18.30;43.64
78123;BME280;67376;44.802;10.332;2023-02-18T05:10:53;102261.66;;;18.31;44.17
78123;BME280;67376;44.802;10.332;2023-02-18T05:13:18;102255.41;;;18.30;43.89
78123;BME280;67376;44.802;10.332;2023-02-18T05:15:44;102251.66;;;18.31;43.54
78123;BME280;67376;44.802;10.332;2023-02-18T05:18:09;102251.31;;;18.34;44.30
78123;BME280;67376;44.802;10.332;2023-02-18T05:20:35;102260.25;;;18.35;44.09
78123;BME280;67376;44.802;10.332;2023-02-18T05:23:00;102256.53;;;18.36;43.83
78123;BME280;67376;44.802;10.332;2023-02-18T05:25:26;102256.53;;;18.36;43.91
78123;BME280;67376;44.802;10.332;2023-02-18T05:27:51;102266.69;;;18.34;43.85
78123;BME280;67376;44.802;10.332;2023-02-18T05:30:17;102263.16;;;18.33;44.05
78123;BME280;67376;44.802;10.332;2023-02-18T05:32:42;102258.09;;;18.30;44.08
78123;BME280;67376;44.802;10.332;2023-02-18T05:35:08;102261.66;;;18.31;43.23
78123;BME280;67376;44.802;10.332;2023-02-18T05:37:33;102261.75;;;18.37;43.84
78123;BME280;67376;44.802;10.332;2023-02-18T05:39:59;102261.94;;;18.36;43.90
78123;BME280;67376;44.802;10.332;2023-02-18T05:42:24;102273.97;;;18.33;44.01
78123;BME280;67376;44.802;10.332;2023-02-18T05:44:50;102274.13;;;18.32;44.04
78123;BME280;67376;44.802;10.332;2023-02-18T05:47:15;102261.66;;;18.31;43.80
78123;BME280;67376;44.802;10.332;2023-02-18T05:49:41;102270.69;;;18.38;43.95
78123;BME280;67376;44.802;10.332;2023-02-18T05:52:07;102275.81;;;18.33;44.22
78123;BME280;67376;44.802;10.332;2023-02-18T05:54:34;102278.16;;;18.36;43.88
78123;BME280;67376;44.802;10.332;2023-02-18T05:56:59;102271.44;;;18.32;43.58
78123;BME280;67376;44.802;10.332;2023-02-18T05:59:25;102268.25;;;18.28;43.79
78123;BME280;67376;44.802;10.332;2023-02-18T06:01:51;102270.22;;;18.34;43.83
78123;BME280;67376;44.802;10.332;2023-02-18T06:04:16;102259.22;;;18.36;43.90
78123;BME280;67376;44.802;10.332;2023-02-18T06:06:42;102261.28;;;18.34;44.06
78123;BME280;67376;44.802;10.332;2023-02-18T06:09:08;102263.16;;;18.33;43.21
78123;BME280;67376;44.802;10.332;2023-02-18T06:11:34;102261.66;;;18.31;44.00
78123;BME280;67376;44.802;10.332;2023-02-18T06:14:00;102264.16;;;18.32;43.50
78123;BME280;67376;44.802;10.332;2023-02-18T06:16:25;102254.38;;;18.31;43.73
78123;BME280;67376;44.802;10.332;2023-02-18T06:18:51;102263.63;;;18.37;43.86
78123;BME280;67376;44.802;10.332;2023-02-18T06:21:16;102269.38;;;18.34;44.13
78123;BME280;67376;44.802;10.332;2023-02-18T06:23:42;102274.97;;;18.32;44.07
78123;BME280;67376;44.802;10.332;2023-02-18T06:26:07;102272.75;;;18.36;44.10
78123;BME280;67376;44.802;10.332;2023-02-18T06:28:32;102268.56;;;18.33;44.31
78123;BME280;67376;44.802;10.332;2023-02-18T06:30:58;102261.28;;;18.34;44.88
78123;BME280;67376;44.802;10.332;2023-02-18T06:33:23;102267.34;;;18.36;45.09
78123;BME280;67376;44.802;10.332;2023-02-18T06:35:57;102273.59;;;18.36;45.24
78123;BME280;67376;44.802;10.332;2023-02-18T06:38:23;102267.16;;;18.37;45.08
78123;BME280;67376;44.802;10.332;2023-02-18T06:40:49;102276.94;;;18.38;44.57
78123;BME280;67376;44.802;10.332;2023-02-18T06:43:14;102276.09;;;18.38;44.43
78123;BME280;67376;44.802;10.332;2023-02-18T06:45:40;102268.00;;;18.38;44.69
78123;BME280;67376;44.802;10.332;2023-02-18T06:48:05;102274.25;;;18.38;44.23
78123;BME280;67376;44.802;10.332;2023-02-18T06:50:31;102266.69;;;18.34;44.39
78123;BME280;67376;44.802;10.332;2023-02-18T06:52:56;102274.91;;;18.40;44.28
78123;BME280;67376;44.802;10.332;2023-02-18T06:55:23;102271.34;;;18.40;45.02
78123;BME280;67376;44.802;10.332;2023-02-18T06:57:49;102274.44;;;18.37;44.20
78123;BME280;67376;44.802;10.332;2023-02-18T07:00:15;102259.13;;;18.29;44.29
78123;BME280;67376;44.802;10.332;2023-02-18T07:02:40;102283.13;;;18.47;44.14
78123;BME280;67376;44.802;10.332;2023-02-18T07:05:06;102279.47;;;18.40;44.36
78123;BME280;67376;44.802;10.332;2023-02-18T07:07:31;102277.41;;;18.42;44.43
78123;BME280;67376;44.802;10.332;2023-02-18T07:09:57;102283.47;;;18.44;44.87
78123;BME280;67376;44.802;10.332;2023-02-18T07:12:22;102286.72;;;18.54;44.54
78123;BME280;67376;44.802;10.332;2023-02-18T07:14:47;102288.13;;;18.50;44.68
78123;BME280;67376;44.802;10.332;2023-02-18T07:17:13;102289.72;;;18.44;45.26
78123;BME280;67376;44.802;10.332;2023-02-18T07:19:39;102292.63;;;18.43;44.77
78123;BME280;67376;44.802;10.332;2023-02-18T07:22:05;102291.59;;;18.44;44.78
78123;BME280;67376;44.802;10.332;2023-02-18T07:24:30;102291.97;;;18.41;44.13
78123;BME280;67376;44.802;10.332;2023-02-18T07:26:55;102300.06;;;18.41;44.94
78123;BME280;67376;44.802;10.332;2023-02-18T07:29:21;102290.94;;;18.42;44.80
78123;BME280;67376;44.802;10.332;2023-02-18T07:31:46;102293.00;;;18.40;44.62
78123;BME280;67376;44.802;10.332;2023-02-18T07:34:11;102297.47;;;18.47;44.81
78123;BME280;67376;44.802;10.332;2023-02-18T07:36:37;102304.34;;;18.50;44.48
78123;BME280;67376;44.802;10.332;2023-02-18T07:39:02;102311.56;;;18.43;44.77
78123;BME280;67376;44.802;10.332;2023-02-18T07:41:28;102309.31;;;18.46;45.11
78123;BME280;67376;44.802;10.332;2023-02-18T07:43:53;102315.56;;;18.47;45.42
78123;BME280;67376;44.802;10.332;2023-02-18T07:46:18;102298.50;;;18.46;44.93
78123;BME280;67376;44.802;10.332;2023-02-18T07:48:44;102311.63;;;18.49;44.85
78123;BME280;67376;44.802;10.332;2023-02-18T07:51:11;102307.91;;;18.51;44.97
78123;BME280;67376;44.802;10.332;2023-02-18T07:53:37;102314.53;;;18.48;44.90
78123;BME280;67376;44.802;10.332;2023-02-18T07:56:03;102311.63;;;18.49;44.56
78123;BME280;67376;44.802;10.332;2023-02-18T07:58:32;102321.81;;;18.47;44.55
78123;BME280;67376;44.802;10.332;2023-02-18T08:00:58;102316.84;;;18.51;44.68
78123;BME280;67376;44.802;10.332;2023-02-18T08:03:28;102310.41;;;18.52;44.39
78123;BME280;67376;44.802;10.332;2023-02-18T08:05:54;102315.44;;;18.55;43.06
78123;BME280;67376;44.802;10.332;2023-02-18T08:08:21;102311.91;;;18.55;43.02
78123;BME280;67376;44.802;10.332;2023-02-18T08:10:47;102308.38;;;18.54;42.94
78123;BME280;67376;44.802;10.332;2023-02-18T08:13:13;102309.19;;;18.55;42.99
78123;BME280;67376;44.802;10.332;2023-02-18T08:15:39;102320.38;;;18.52;42.22
78123;BME280;67376;44.802;10.332;2023-02-18T08:18:06;102307.53;;;18.39;42.25
78123;BME280;67376;44.802;10.332;2023-02-18T08:20:35;102318.63;;;18.44;41.97
78123;BME280;67376;44.802;10.332;2023-02-18T08:23:02;102321.72;;;18.41;42.08
78123;BME280;67376;44.802;10.332;2023-02-18T08:25:27;102309.03;;;18.41;42.42
78123;BME280;67376;44.802;10.332;2023-02-18T08:27:53;102313.59;;;18.41;42.44
78123;BME280;67376;44.802;10.332;2023-02-18T08:30:18;102322.19;;;18.44;42.00
78123;BME280;67376;44.802;10.332;2023-02-18T08:32:43;102332.91;;;18.38;42.34
78123;BME280;67376;44.802;10.332;2023-02-18T08:35:10;102323.38;;;18.42;41.86
78123;BME280;67376;44.802;10.332;2023-02-18T08:37:36;102321.91;;;18.39;42.06
78123;BME280;67376;44.802;10.332;2023-02-18T08:40:01;102331.50;;;18.42;41.91
78123;BME280;67376;44.802;10.332;2023-02-18T08:42:27;102327.31;;;18.39;41.75
78123;BME280;67376;44.802;10.332;2023-02-18T08:44:52;102323.56;;;18.40;41.54
78123;BME280;67376;44.802;10.332;2023-02-18T08:47:18;102324.78;;;18.38;41.04
78123;BME280;67376;44.802;10.332;2023-02-18T08:49:43;102320.03;;;18.40;41.21
78123;BME280;67376;44.802;10.332;2023-02-18T08:52:09;102319.09;;;18.33;41.41
78123;BME280;67376;44.802;10.332;2023-02-18T08:54:34;102317.03;;;18.35;41.54
78123;BME280;67376;44.802;10.332;2023-02-18T08:56:59;102318.72;;;18.36;41.72
78123;BME280;67376;44.802;10.332;2023-02-18T08:59:25;102307.53;;;18.39;41.62
78123;BME280;67376;44.802;10.332;2023-02-18T09:01:52;102307.25;;;18.34;41.46
78123;BME280;67376;44.802;10.332;2023-02-18T09:04:18;102313.84;;;18.31;41.42
78123;BME280;67376;44.802;10.332;2023-02-18T09:06:46;102307.91;;;18.36;41.60
78123;BME280;67376;44.802;10.332;2023-02-18T09:09:11;102312.66;;;18.34;40.73
78123;BME280;67376;44.802;10.332;2023-02-18T09:11:36;102317.59;;;18.30;41.56
78123;BME280;67376;44.802;10.332;2023-02-18T09:14:02;102320.47;;;18.29;41.04
78123;BME280;67376;44.802;10.332;2023-02-18T09:16:27;102306.03;;;18.36;41.59
78123;BME280;67376;44.802;10.332;2023-02-18T09:18:54;102303.88;;;18.32;41.32
78123;BME280;67376;44.802;10.332;2023-02-18T09:21:19;102303.78;;;18.25;41.14
78123;BME280;67376;44.802;10.332;2023-02-18T09:23:46;102294.47;;;18.28;41.06
78123;BME280;67376;44.802;10.332;2023-02-18T09:26:13;102305.75;;;18.31;40.92
78123;BME280;67376;44.802;10.332;2023-02-18T09:28:39;102296.13;;;18.29;41.57
78123;BME280;67376;44.802;10.332;2023-02-18T09:31:07;102295.31;;;18.28;40.91
78123;BME280;67376;44.802;10.332;2023-02-18T09:33:42;102292.78;;;18.27;41.28
78123;BME280;67376;44.802;10.332;2023-02-18T09:36:08;102289.41;;;18.25;40.98
78123;BME280;67376;44.802;10.332;2023-02-18T09:38:34;102292.78;;;18.27;41.30
78123;BME280;67376;44.802;10.332;2023-02-18T09:41:02;102297.34;;;18.26;41.07
78123;BME280;67376;44.802;10.332;2023-02-18T09:43:36;102298.00;;;18.28;41.04
78123;BME280;67376;44.802;10.332;2023-02-18T09:46:03;102298.00;;;18.28;40.43
78123;BME280;67376;44.802;10.332;2023-02-18T09:48:33;102303.41;;;18.28;40.70
78123;BME280;67376;44.802;10.332;2023-02-18T09:51:00;102305.47;;;18.26;40.57
78123;BME280;67376;44.802;10.332;2023-02-18T09:53:26;102305.47;;;18.26;40.54
78123;BME280;67376;44.802;10.332;2023-02-18T09:55:54;102301.53;;;18.29;40.87
78123;BME280;67376;44.802;10.332;2023-02-18T09:58:22;102296.13;;;18.29;40.59
78123;BME280;67376;44.802;10.332;2023-02-18T10:01:00;102296.50;;;18.26;40.31
78123;BME280;67376;44.802;10.332;2023-02-18T10:03:28;102286.72;;;18.25;40.60
78123;BME280;67376;44.802;10.332;2023-02-18T10:06:01;102290.44;;;18.24;40.90
78123;BME280;67376;44.802;10.332;2023-02-18T10:08:35;102287.75;;;18.24;40.95
78123;BME280;67376;44.802;10.332;2023-02-18T10:11:02;102294.63;;;18.26;40.66
78123;BME280;67376;44.802;10.332;2023-02-18T10:13:31;102285.88;;;18.24;40.67
78123;BME280;67376;44.802;10.332;2023-02-18T10:15:58;102284.19;;;18.23;40.26
78123;BME280;67376;44.802;10.332;2023-02-18T10:18:32;102282.16;;;18.25;40.35
78123;BME280;67376;44.802;10.332;2023-02-18T10:21:08;102280.66;;;18.23;40.89
78123;BME280;67376;44.802;10.332;2023-02-18T10:23:38;102280.47;;;18.24;40.66
78123;BME280;67376;44.802;10.332;2023-02-18T10:26:07;102277.41;;;18.27;40.67
78123;BME280;67376;44.802;10.332;2023-02-18T10:28:36;102278.31;;;18.20;40.65
78123;BME280;67376;44.802;10.332;2023-02-18T10:31:06;102275.91;;;18.25;40.20
78123;BME280;67376;44.802;10.332;2023-02-18T10:39:08;102265.94;;;18.25;40.75
78123;BME280;67376;44.802;10.332;2023-02-18T10:52:54;102254.09;;;18.26;40.83
78123;BME280;67376;44.802;10.332;2023-02-18T10:55:44;102248.69;;;18.26;40.38
78123;BME280;67376;44.802;10.332;2023-02-18T11:00:52;102240.56;;;18.26;41.42
78123;BME280;67376;44.802;10.332;2023-02-18T11:03:35;102232.09;;;18.29;40.92
78123;BME280;67376;44.802;10.332;2023-02-18T11:06:03;102230.13;;;18.23;41.16
78123;BME280;67376;44.802;10.332;2023-02-18T11:08:41;102230.41;;;18.28;41.59
78123;BME280;67376;44.802;10.332;2023-02-18T11:11:23;102229.94;;;18.25;41.07
78123;BME280;67376;44.802;10.332;2023-02-18T11:13:53;102224.44;;;18.33;40.63
78123;BME280;67376;44.802;10.332;2023-02-18T11:16:23;102205.78;;;18.23;40.92
78123;BME280;67376;44.802;10.332;2023-02-18T11:18:59;102210.09;;;18.32;40.70
78123;BME280;67376;44.802;10.332;2023-02-18T11:21:36;102208.78;;;18.28;40.81
78123;BME280;67376;44.802;10.332;2023-02-18T11:24:08;102202.72;;;18.26;41.21
78123;BME280;67376;44.802;10.332;2023-02-18T11:26:37;102200.66;;;18.28;41.00
78123;BME280;67376;44.802;10.332;2023-02-18T11:29:19;102188.00;;;18.29;40.93
78123;BME280;67376;44.802;10.332;2023-02-18T11:31:50;102180.25;;;18.26;41.10
78123;BME280;67376;44.802;10.332;2023-02-18T11:34:20;102178.84;;;18.30;41.45
78123;BME280;67376;44.802;10.332;2023-02-18T11:36:47;102169.63;;;18.24;41.04
78123;BME280;67376;44.802;10.332;2023-02-18T11:39:18;102169.91;;;18.29;40.79
78123;BME280;67376;44.802;10.332;2023-02-18T11:41:53;102166.56;;;18.27;41.12
78123;BME280;67376;44.802;10.332;2023-02-18T11:44:39;102167.22;;;18.29;40.75
78123;BME280;67376;44.802;10.332;2023-02-18T11:47:16;102157.41;;;18.28;41.16
78123;BME280;67376;44.802;10.332;2023-02-18T11:49:58;102158.25;;;18.29;40.59
78123;BME280;67376;44.802;10.332;2023-02-18T11:52:42;102147.63;;;18.27;40.88
78123;BME280;67376;44.802;10.332;2023-02-18T11:55:20;102148.28;;;18.29;41.08
78123;BME280;67376;44.802;10.332;2023-02-18T11:57:54;102143.06;;;18.28;41.15
78123;BME280;67376;44.802;10.332;2023-02-18T12:00:40;102141.38;;;18.27;40.72
78123;BME280;67376;44.802;10.332;2023-02-18T12:03:14;102143.72;;;18.30;40.74
78123;BME280;67376;44.802;10.332;2023-02-18T12:05:43;102133.91;;;18.29;40.92
78123;BME280;67376;44.802;10.332;2023-02-18T12:08:17;102134.56;;;18.31;41.31
78123;BME280;67376;44.802;10.332;2023-02-18T12:10:58;102131.69;;;18.32;40.94
78123;BME280;67376;44.802;10.332;2023-02-18T12:13:26;102125.81;;;18.29;40.78
78123;BME280;67376;44.802;10.332;2023-02-18T12:27:15;102099.34;;;18.24;40.79
78123;BME280;67376;44.802;10.332;2023-02-18T12:32:49;102096.06;;;18.29;40.79
78123;BME280;67376;44.802;10.332;2023-02-18T12:35:37;102085.72;;;18.32;41.11
78123;BME280;67376;44.802;10.332;2023-02-18T12:44:01;102076.78;;;18.32;40.80
78123;BME280;67376;44.802;10.332;2023-02-18T12:47:10;102077.72;;;18.24;40.42
78123;BME280;67376;44.802;10.332;2023-02-18T12:50:03;102073.41;;;18.30;41.00
78123;BME280;67376;44.802;10.332;2023-02-18T12:52:45;102060.28;;;18.27;40.70
78123;BME280;67376;44.802;10.332;2023-02-18T12:55:35;102071.09;;;18.27;40.91
78123;BME280;67376;44.802;10.332;2023-02-18T13:11:51;102024.94;;;18.28;40.59
78123;BME280;67376;44.802;10.332;2023-02-18T13:14:29;102024.94;;;18.28;40.57
78123;BME280;67376;44.802;10.332;2023-02-18T13:16:57;102024.75;;;18.30;40.75
78123;BME280;67376;44.802;10.332;2023-02-18T13:19:28;102014.31;;;18.27;41.00
78123;BME280;67376;44.802;10.332;2023-02-18T13:21:59;102013.28;;;18.28;40.84
78123;BME280;67376;44.802;10.332;2023-02-18T13:24:37;102008.53;;;18.30;40.49
78123;BME280;67376;44.802;10.332;2023-02-18T13:32:47;102003.50;;;18.27;40.13
78123;BME280;67376;44.802;10.332;2023-02-18T13:35:24;102003.06;;;18.23;41.17
78123;BME280;67376;44.802;10.332;2023-02-18T13:40:46;101988.69;;;18.23;40.59
78123;BME280;67376;44.802;10.332;2023-02-18T13:54:00;101985.03;;;18.30;40.76
78123;BME280;67376;44.802;10.332;2023-02-18T13:56:29;101979.63;;;18.30;40.38
78123;BME280;67376;44.802;10.332;2023-02-18T14:01:49;101972.75;;;18.28;40.64
78123;BME280;67376;44.802;10.332;2023-02-18T14:09:58;101960.72;;;18.30;40.19
78123;BME280;67376;44.802;10.332;2023-02-18T14:31:00;101948.41;;;18.28;40.26
78123;BME280;67376;44.802;10.332;2023-02-18T14:33:31;101944.50;;;18.30;40.45
78123;BME280;67376;44.802;10.332;2023-02-18T14:44:28;101925.94;;;18.27;41.07
78123;BME280;67376;44.802;10.332;2023-02-18T14:50:00;101925.13;;;18.27;41.08
78123;BME280;67376;44.802;10.332;2023-02-18T14:52:29;101921.56;;;18.26;40.82
78123;BME280;67376;44.802;10.332;2023-02-18T14:54:55;101924.72;;;18.30;40.42
78123;BME280;67376;44.802;10.332;2023-02-18T14:57:30;101925.31;;;18.25;41.19
78123;BME280;67376;44.802;10.332;2023-02-18T14:59:58;101921.19;;;18.29;40.75
78123;BME280;67376;44.802;10.332;2023-02-18T15:02:27;101912.44;;;18.27;40.77
78123;BME280;67376;44.802;10.332;2023-02-18T15:05:09;101921.63;;;18.33;40.78
78123;BME280;67376;44.802;10.332;2023-02-18T15:07:35;101914.75;;;18.30;40.39
78123;BME280;67376;44.802;10.332;2023-02-18T15:10:01;101923.69;;;18.31;40.59
78123;BME280;67376;44.802;10.332;2023-02-18T15:12:27;101913.91;;;18.30;40.06
78123;BME280;67376;44.802;10.332;2023-02-18T15:15:02;101918.28;;;18.31;40.12
78123;BME280;67376;44.802;10.332;2023-02-18T15:17:29;101917.91;;;18.34;40.72